createdAt,value
2017-08-16T00:00:32.748Z,2.53
2017-08-16T00:03:00.583Z,2.80
2017-08-16T00:05:28.341Z,3.47
2017-08-16T00:07:56.142Z,3.70
2017-08-16T00:10:23.834Z,3.40
2017-08-16T00:12:51.761Z,3.23
2017-08-16T00:15:19.619Z,2.80
2017-08-16T00:17:47.404Z,3.57
2017-08-16T00:20:15.195Z,3.50
2017-08-16T00:22:43.036Z,3.30
2017-08-16T00:25:10.853Z,3.20
2017-08-16T00:27:38.688Z,4.20
2017-08-16T00:30:07.377Z,2.70
2017-08-16T00:32:35.213Z,3.30
2017-08-16T00:35:03.007Z,3.27
2017-08-16T00:37:30.855Z,2.70
2017-08-16T00:39:58.702Z,3.47
2017-08-16T00:42:26.436Z,3.50
2017-08-16T00:44:55.510Z,3.77
2017-08-16T00:47:23.325Z,3.40
2017-08-16T00:49:51.213Z,3.30
2017-08-16T00:52:19.012Z,3.20
2017-08-16T00:54:46.909Z,4.00
2017-08-16T00:57:14.752Z,3.23
2017-08-16T00:59:42.469Z,3.23
2017-08-16T01:02:10.261Z,3.33
2017-08-16T01:04:38.014Z,2.80
2017-08-16T01:07:05.723Z,3.27
2017-08-16T01:09:33.443Z,3.10
2017-08-16T01:12:01.325Z,2.90
2017-08-16T01:14:29.041Z,3.60
2017-08-16T01:16:56.803Z,3.40
2017-08-16T01:19:24.545Z,3.10
2017-08-16T01:21:52.217Z,2.63
2017-08-16T01:24:20.028Z,3.70
2017-08-16T01:26:47.814Z,3.40
2017-08-16T01:29:15.712Z,2.90
2017-08-16T01:31:43.516Z,3.00
2017-08-16T01:34:11.368Z,3.60
2017-08-16T01:36:39.152Z,3.77
2017-08-16T01:39:07.113Z,3.17
2017-08-16T01:41:34.907Z,3.27
2017-08-16T01:44:02.730Z,3.30
2017-08-16T01:46:30.488Z,3.00
2017-08-16T01:48:58.265Z,2.90
2017-08-16T01:51:26.002Z,3.20
2017-08-16T01:53:53.860Z,3.87
2017-08-16T01:56:21.697Z,3.43
2017-08-16T01:58:49.583Z,3.30
2017-08-16T02:01:17.358Z,3.70
2017-08-16T02:03:45.159Z,3.27
2017-08-16T02:06:12.942Z,3.60
2017-08-16T02:08:40.745Z,3.50
2017-08-16T02:11:08.456Z,3.50
2017-08-16T02:13:36.313Z,3.07
2017-08-16T02:16:04.117Z,3.20
2017-08-16T02:18:31.992Z,3.20
2017-08-16T02:20:59.929Z,4.10
2017-08-16T02:23:27.755Z,3.03
2017-08-16T02:25:55.609Z,4.10
2017-08-16T02:28:23.437Z,3.20
2017-08-16T02:30:51.304Z,3.20
2017-08-16T02:33:19.251Z,3.87
2017-08-16T02:35:47.134Z,2.97
2017-08-16T02:38:15.027Z,4.00
2017-08-16T02:40:42.947Z,3.60
2017-08-16T02:43:10.753Z,3.97
2017-08-16T02:45:38.606Z,3.23
2017-08-16T02:48:06.429Z,3.13
2017-08-16T02:50:34.282Z,4.20
2017-08-16T02:53:02.237Z,3.20
2017-08-16T02:55:30.103Z,3.10
2017-08-16T02:57:57.873Z,3.17
2017-08-16T03:00:25.899Z,3.80
2017-08-16T03:02:53.766Z,3.70
2017-08-16T03:05:21.589Z,4.60
2017-08-16T03:07:49.573Z,3.67
2017-08-16T03:10:17.437Z,3.40
2017-08-16T03:12:45.231Z,3.97
2017-08-16T03:15:13.093Z,3.93
2017-08-16T03:17:41.073Z,4.30
2017-08-16T03:20:08.831Z,3.83
2017-08-16T03:22:37.041Z,4.47
2017-08-16T03:25:05.081Z,4.33
2017-08-16T03:27:33.062Z,4.70
2017-08-16T03:30:00.895Z,5.00
2017-08-16T03:32:28.714Z,4.73
2017-08-16T03:34:56.518Z,4.77
2017-08-16T03:37:24.272Z,5.10
2017-08-16T03:39:52.159Z,5.37
2017-08-16T03:42:19.992Z,4.97
2017-08-16T03:44:48.038Z,4.10
2017-08-16T03:47:15.951Z,5.40
2017-08-16T03:49:43.778Z,6.50
2017-08-16T03:52:11.657Z,6.33
2017-08-16T03:54:39.588Z,6.40
2017-08-16T03:57:07.464Z,6.10
2017-08-16T03:59:35.637Z,5.73
2017-08-16T04:02:03.518Z,5.20
2017-08-16T04:04:31.408Z,5.77
2017-08-16T04:06:59.366Z,4.10
2017-08-16T04:09:27.209Z,4.70
2017-08-16T04:11:55.167Z,4.70
2017-08-16T04:14:23.192Z,4.20
2017-08-16T04:16:51.067Z,4.80
2017-08-16T04:19:18.937Z,4.53
2017-08-16T04:21:47.849Z,5.07
2017-08-16T04:24:15.714Z,5.07
2017-08-16T04:26:43.504Z,4.23
2017-08-16T04:29:11.400Z,4.63
2017-08-16T04:31:39.159Z,4.07
2017-08-16T04:34:06.990Z,4.13
2017-08-16T04:36:34.740Z,9.17
2017-08-16T04:39:02.595Z,16.00
2017-08-16T04:41:30.384Z,11.40
2017-08-16T04:43:58.241Z,6.60
2017-08-16T04:46:26.101Z,6.07
2017-08-16T04:48:53.859Z,4.97
2017-08-16T04:51:21.667Z,4.87
2017-08-16T04:53:49.401Z,4.27
2017-08-16T04:56:17.206Z,4.03
2017-08-16T04:58:45.045Z,4.10
2017-08-16T05:01:12.810Z,4.53
2017-08-16T05:03:40.638Z,5.37
2017-08-16T05:06:08.387Z,3.97
2017-08-16T05:08:36.758Z,4.03
2017-08-16T05:11:06.506Z,4.80
2017-08-16T05:13:34.466Z,5.30
2017-08-16T05:16:02.310Z,4.73
2017-08-16T05:18:30.040Z,5.20
2017-08-16T05:20:57.828Z,4.87
2017-08-16T05:23:28.707Z,5.30
2017-08-16T05:25:56.498Z,6.00
2017-08-16T05:28:25.499Z,6.67
2017-08-16T05:30:53.288Z,5.47
2017-08-16T05:33:21.031Z,6.77
2017-08-16T05:35:48.871Z,5.07
2017-08-16T05:38:16.751Z,5.40
2017-08-16T05:40:44.597Z,5.57
2017-08-16T05:43:12.470Z,5.73
2017-08-16T05:45:40.270Z,6.10
2017-08-16T05:48:08.026Z,4.97
2017-08-16T05:50:35.739Z,5.27
2017-08-16T05:53:03.455Z,4.90
2017-08-16T05:55:31.233Z,6.17
2017-08-16T05:57:59.762Z,5.83
2017-08-16T06:00:27.522Z,5.57
2017-08-16T06:02:55.988Z,6.80
2017-08-16T06:05:23.728Z,7.00
2017-08-16T06:07:51.558Z,5.60
2017-08-16T06:10:19.303Z,7.17
2017-08-16T06:12:47.050Z,5.83
2017-08-16T06:15:14.820Z,6.23
2017-08-16T06:17:42.534Z,7.13
2017-08-16T06:20:10.303Z,6.67
2017-08-16T06:22:38.030Z,7.80
2017-08-16T06:25:05.808Z,7.73
2017-08-16T06:27:33.547Z,5.53
2017-08-16T06:30:01.261Z,5.83
2017-08-16T06:32:28.968Z,5.60
2017-08-16T06:34:56.738Z,4.97
2017-08-16T06:37:24.471Z,4.90
2017-08-16T06:39:52.188Z,5.00
2017-08-16T06:42:20.141Z,5.67
2017-08-16T06:44:47.937Z,5.53
2017-08-16T06:47:15.700Z,4.87
2017-08-16T06:49:43.417Z,6.23
2017-08-16T06:52:11.191Z,5.20
2017-08-16T06:54:39.007Z,5.17
2017-08-16T06:57:06.760Z,4.90
2017-08-16T06:59:34.462Z,6.03
2017-08-16T07:02:02.298Z,6.50
2017-08-16T07:04:30.171Z,5.67
2017-08-16T07:06:57.942Z,5.27
2017-08-16T07:09:25.710Z,4.40
2017-08-16T07:11:53.414Z,5.17
2017-08-16T07:14:21.184Z,6.43
2017-08-16T07:16:48.960Z,6.17
2017-08-16T07:19:16.763Z,6.67
2017-08-16T07:21:44.528Z,5.40
2017-08-16T07:24:12.239Z,5.10
2017-08-16T07:26:40.012Z,5.40
2017-08-16T07:29:07.866Z,6.27
2017-08-16T07:31:35.631Z,6.20
2017-08-16T07:34:03.395Z,5.27
2017-08-16T07:36:31.197Z,6.90
2017-08-16T07:38:58.950Z,5.60
2017-08-16T07:41:26.661Z,6.37
2017-08-16T07:43:54.449Z,6.07
2017-08-16T07:46:22.175Z,6.73
2017-08-16T07:48:50.782Z,5.97
2017-08-16T07:51:18.491Z,6.23
2017-08-16T07:53:46.315Z,6.47
2017-08-16T07:56:14.096Z,5.97
2017-08-16T07:58:41.843Z,6.63
2017-08-16T08:01:09.598Z,5.50
2017-08-16T08:03:37.374Z,6.47
2017-08-16T08:06:05.176Z,6.00
2017-08-16T08:08:32.932Z,7.50
2017-08-16T08:11:00.701Z,8.03
2017-08-16T08:13:28.408Z,6.00
2017-08-16T08:15:56.198Z,6.80
2017-08-16T08:18:23.954Z,5.90
2017-08-16T08:20:52.536Z,5.70
2017-08-16T08:23:20.307Z,5.97
2017-08-16T08:25:48.084Z,6.33
2017-08-16T08:28:15.825Z,5.50
2017-08-16T08:30:43.545Z,6.20
2017-08-16T08:33:11.889Z,7.20
2017-08-16T08:35:39.649Z,5.77
2017-08-16T08:38:07.366Z,7.60
2017-08-16T08:40:35.123Z,5.40
2017-08-16T08:43:02.839Z,6.00
2017-08-16T08:45:31.691Z,6.43
2017-08-16T08:47:59.449Z,5.80
2017-08-16T08:50:27.160Z,6.93
2017-08-16T08:52:55.613Z,5.47
2017-08-16T08:55:24.009Z,6.10
2017-08-16T08:57:51.811Z,6.00
2017-08-16T09:00:19.578Z,5.97
2017-08-16T09:02:47.458Z,5.10
2017-08-16T09:05:15.298Z,5.70
2017-08-16T09:07:43.737Z,5.80
2017-08-16T09:10:11.566Z,4.53
2017-08-16T09:12:39.339Z,6.03
2017-08-16T09:15:07.166Z,6.03
2017-08-16T09:17:35.001Z,5.10
2017-08-16T09:20:02.824Z,5.30
2017-08-16T09:22:30.705Z,5.70
2017-08-16T09:25:00.262Z,5.20
2017-08-16T09:27:29.214Z,5.10
2017-08-16T09:29:57.114Z,5.47
2017-08-16T09:32:25.778Z,5.17
2017-08-16T09:34:53.587Z,5.00
2017-08-16T09:37:22.962Z,5.50
2017-08-16T09:39:50.689Z,5.07
2017-08-16T09:42:18.685Z,5.30
2017-08-16T09:44:47.614Z,5.70
2017-08-16T09:47:16.400Z,5.80
2017-08-16T09:49:44.183Z,5.77
2017-08-16T09:52:13.640Z,4.90
2017-08-16T09:54:42.397Z,5.03
2017-08-16T09:57:10.163Z,6.07
2017-08-16T09:59:38.335Z,4.40
2017-08-16T10:02:06.346Z,5.50
2017-08-16T10:04:34.128Z,5.37
2017-08-16T10:07:01.895Z,5.13
2017-08-16T10:09:29.785Z,5.70
2017-08-16T10:11:57.516Z,4.80
2017-08-16T10:14:25.341Z,4.13
2017-08-16T10:16:53.209Z,4.73
2017-08-16T10:19:21.048Z,4.23
2017-08-16T10:21:48.861Z,3.90
2017-08-16T10:24:16.664Z,4.80
2017-08-16T10:26:44.416Z,4.90
2017-08-16T10:29:12.230Z,4.70
2017-08-16T10:31:39.978Z,4.90
2017-08-16T10:34:07.743Z,5.03
2017-08-16T10:36:35.508Z,4.87
2017-08-16T10:39:03.401Z,4.87
2017-08-16T10:41:31.162Z,4.00
2017-08-16T10:43:58.855Z,3.87
2017-08-16T10:46:26.669Z,4.73
2017-08-16T10:48:54.381Z,3.60
2017-08-16T10:51:22.282Z,4.00
2017-08-16T10:53:50.150Z,4.10
2017-08-16T10:56:17.898Z,4.73
2017-08-16T10:58:45.646Z,4.83
2017-08-16T11:01:13.430Z,4.47
2017-08-16T11:03:41.150Z,4.90
2017-08-16T11:06:09.042Z,3.97
2017-08-16T11:08:36.831Z,5.83
2017-08-16T11:11:04.583Z,3.93
2017-08-16T11:13:32.387Z,3.90
2017-08-16T11:16:00.143Z,4.00
2017-08-16T11:18:27.867Z,4.13
2017-08-16T11:20:55.584Z,4.07
2017-08-16T11:23:23.326Z,4.20
2017-08-16T11:25:51.436Z,3.97
2017-08-16T11:28:19.143Z,4.10
2017-08-16T11:30:46.850Z,4.40
2017-08-16T11:33:14.599Z,3.30
2017-08-16T11:35:42.288Z,3.40
2017-08-16T11:38:10.141Z,3.27
2017-08-16T11:40:38.045Z,2.97
2017-08-16T11:43:05.816Z,2.60
2017-08-16T11:45:33.563Z,3.30
2017-08-16T11:48:01.335Z,2.70
2017-08-16T11:50:29.110Z,3.87
2017-08-16T11:52:56.841Z,3.50
2017-08-16T11:55:24.545Z,3.67
2017-08-16T11:57:52.337Z,3.17
2017-08-16T12:00:20.076Z,2.97
2017-08-16T12:02:47.801Z,2.90
2017-08-16T12:05:15.563Z,3.47
2017-08-16T12:07:43.261Z,3.17
2017-08-16T12:10:11.048Z,3.20
2017-08-16T12:12:38.752Z,2.43
2017-08-16T12:15:06.512Z,2.90
2017-08-16T12:17:34.222Z,3.07
2017-08-16T12:20:02.028Z,3.10
2017-08-16T12:22:29.873Z,2.60
2017-08-16T12:24:57.644Z,2.40
2017-08-16T12:27:25.463Z,2.63
2017-08-16T12:29:53.169Z,2.40
2017-08-16T12:32:20.933Z,2.80
2017-08-16T12:34:49.198Z,2.50
2017-08-16T12:37:17.484Z,2.73
2017-08-16T12:39:45.163Z,2.50
2017-08-16T12:42:12.929Z,3.23
2017-08-16T12:44:40.643Z,3.17
2017-08-16T12:47:08.405Z,2.63
2017-08-16T12:49:36.114Z,2.80
2017-08-16T12:52:03.985Z,3.47
2017-08-16T12:54:31.695Z,2.50
2017-08-16T12:56:59.482Z,2.50
2017-08-16T12:59:27.234Z,3.40
2017-08-16T13:01:54.991Z,3.10
2017-08-16T13:04:22.728Z,3.57
2017-08-16T13:06:50.476Z,3.20
2017-08-16T13:09:18.174Z,3.03
2017-08-16T13:11:45.895Z,2.90
2017-08-16T13:14:13.649Z,2.90
2017-08-16T13:16:41.404Z,2.87
2017-08-16T13:19:09.244Z,3.27
2017-08-16T13:21:37.016Z,2.10
2017-08-16T13:24:04.791Z,3.33
2017-08-16T13:26:32.528Z,3.03
2017-08-16T13:29:00.231Z,3.10
2017-08-16T13:31:28.003Z,3.40
2017-08-16T13:33:55.713Z,3.03
2017-08-16T13:36:23.964Z,3.17
2017-08-16T13:38:51.741Z,3.03
2017-08-16T13:41:19.462Z,3.17
2017-08-16T13:43:47.241Z,3.40
2017-08-16T13:46:14.959Z,2.73
2017-08-16T13:48:42.792Z,3.20
2017-08-16T13:51:10.533Z,3.33
2017-08-16T13:53:38.394Z,3.30
2017-08-16T13:56:06.162Z,4.20
2017-08-16T13:58:33.958Z,3.90
2017-08-16T14:01:01.727Z,3.03
2017-08-16T14:03:30.103Z,3.03
2017-08-16T14:05:57.909Z,3.17
2017-08-16T14:08:25.653Z,2.87
2017-08-16T14:10:53.425Z,3.60
2017-08-16T14:13:21.175Z,3.57
2017-08-16T14:15:48.940Z,3.03
2017-08-16T14:18:16.749Z,3.27
2017-08-16T14:20:44.504Z,3.10
2017-08-16T14:23:12.202Z,2.93
2017-08-16T14:25:39.957Z,2.90
2017-08-16T14:28:07.664Z,2.83
2017-08-16T14:30:36.347Z,2.60
2017-08-16T14:33:04.092Z,2.67
2017-08-16T14:35:31.893Z,2.73
2017-08-16T14:37:59.623Z,2.90
2017-08-16T14:40:27.358Z,2.40
2017-08-16T14:42:55.121Z,2.60
2017-08-16T14:45:23.702Z,2.27
2017-08-16T14:47:51.532Z,3.10
2017-08-16T14:50:20.180Z,2.60
2017-08-16T14:52:48.904Z,3.20
2017-08-16T14:55:16.714Z,2.80
2017-08-16T14:57:44.493Z,2.50
2017-08-16T15:00:12.241Z,3.03
2017-08-16T15:02:40.220Z,2.73
2017-08-16T15:05:07.919Z,2.23
2017-08-16T15:07:35.653Z,2.50
2017-08-16T15:10:03.473Z,2.30
2017-08-16T15:12:31.290Z,2.70
2017-08-16T15:14:59.066Z,2.00
2017-08-16T15:17:26.821Z,2.17
2017-08-16T15:19:54.570Z,2.53
2017-08-16T15:22:22.299Z,2.10
2017-08-16T15:24:50.063Z,2.27
2017-08-16T15:27:17.841Z,1.90
2017-08-16T15:29:45.565Z,1.73
2017-08-16T15:32:13.428Z,2.23
2017-08-16T15:34:41.176Z,2.20
2017-08-16T15:37:08.933Z,1.70
2017-08-16T15:39:36.712Z,2.37
2017-08-16T15:42:04.467Z,2.73
2017-08-16T15:44:32.260Z,2.23
2017-08-16T15:47:00.120Z,2.03
2017-08-16T15:49:27.925Z,2.40
2017-08-16T15:51:55.755Z,2.63
2017-08-16T15:54:23.519Z,2.07
2017-08-16T15:56:51.336Z,2.17
2017-08-16T15:59:19.144Z,2.00
2017-08-16T16:01:47.948Z,2.20
2017-08-16T16:04:15.799Z,2.37
2017-08-16T16:06:43.526Z,2.43
2017-08-16T16:09:11.309Z,2.00
2017-08-16T16:11:39.066Z,2.20
2017-08-16T16:14:06.871Z,1.90
2017-08-16T16:16:34.643Z,2.20
2017-08-16T16:19:02.347Z,2.20
2017-08-16T16:21:30.113Z,1.90
2017-08-16T16:23:57.929Z,2.40
2017-08-16T16:26:25.888Z,2.80
2017-08-16T16:28:53.602Z,2.20
2017-08-16T16:31:21.356Z,2.33
2017-08-16T16:33:49.146Z,2.43
2017-08-16T16:36:17.074Z,2.40
2017-08-16T16:38:44.855Z,2.60
2017-08-16T16:41:12.572Z,2.37
2017-08-16T16:43:40.345Z,2.50
2017-08-16T16:46:08.085Z,2.63
2017-08-16T16:48:35.905Z,3.53
2017-08-16T16:51:03.642Z,3.20
2017-08-16T16:53:31.463Z,3.13
2017-08-16T16:55:59.302Z,2.40
2017-08-16T16:58:27.023Z,3.30
2017-08-16T17:00:54.782Z,4.77
2017-08-16T17:03:22.541Z,3.13
2017-08-16T17:05:50.255Z,2.80
2017-08-16T17:08:18.053Z,3.03
2017-08-16T17:10:45.778Z,2.83
2017-08-16T17:13:13.540Z,2.50
2017-08-16T17:15:41.249Z,2.80
2017-08-16T17:18:09.020Z,2.40
2017-08-16T17:20:36.806Z,2.93
2017-08-16T17:23:04.573Z,3.10
2017-08-16T17:25:32.398Z,2.50
2017-08-16T17:28:00.197Z,2.30
2017-08-16T17:30:28.093Z,2.47
2017-08-16T17:32:55.903Z,2.43
2017-08-16T17:35:23.742Z,2.57
2017-08-16T17:37:54.181Z,2.50
2017-08-16T17:40:22.314Z,2.50
2017-08-16T17:42:50.078Z,1.93
2017-08-16T17:45:17.861Z,2.67
2017-08-16T17:47:45.633Z,2.80
2017-08-16T17:50:13.361Z,2.60
2017-08-16T17:52:41.302Z,2.93
2017-08-16T17:55:09.021Z,2.17
2017-08-16T17:57:37.653Z,3.37
2017-08-16T18:00:05.476Z,2.93
2017-08-16T18:02:33.495Z,2.57
2017-08-16T18:05:01.266Z,3.00
2017-08-16T18:07:29.049Z,2.40
2017-08-16T18:09:56.868Z,2.10
2017-08-16T18:12:24.639Z,2.90
2017-08-16T18:14:52.820Z,2.70
2017-08-16T18:17:20.733Z,2.70
2017-08-16T18:19:48.535Z,2.10
2017-08-16T18:22:16.260Z,2.90
2017-08-16T18:24:44.046Z,3.70
2017-08-16T18:27:11.751Z,3.47
2017-08-16T18:29:39.510Z,3.43
2017-08-16T18:32:07.260Z,2.30
2017-08-16T18:34:35.022Z,2.03
2017-08-16T18:37:02.857Z,2.53
2017-08-16T18:39:31.725Z,2.77
2017-08-16T18:41:59.507Z,2.27
2017-08-16T18:44:28.465Z,2.57
2017-08-16T18:46:59.057Z,2.73
2017-08-16T18:49:27.363Z,2.43
2017-08-16T18:51:55.136Z,2.77
2017-08-16T18:54:24.081Z,2.53
2017-08-16T18:56:53.080Z,2.47
2017-08-16T18:59:21.264Z,2.90
2017-08-16T19:01:49.035Z,2.70
2017-08-16T19:04:16.932Z,2.80
2017-08-16T19:06:44.739Z,3.50
2017-08-16T19:09:13.380Z,2.47
2017-08-16T19:11:41.294Z,5.13
2017-08-16T19:14:10.264Z,2.67
2017-08-16T19:16:38.010Z,2.40
2017-08-16T19:19:06.602Z,2.13
2017-08-16T19:21:34.700Z,2.73
2017-08-16T19:24:03.824Z,2.50
2017-08-16T19:26:31.957Z,2.60
2017-08-16T19:29:00.183Z,3.17
2017-08-16T19:31:28.871Z,2.63
2017-08-16T19:33:57.609Z,3.17
2017-08-16T19:36:25.558Z,3.13
2017-08-16T19:38:53.380Z,2.83
2017-08-16T19:41:21.179Z,2.80
2017-08-16T19:43:50.832Z,2.33
2017-08-16T19:46:18.743Z,3.00
2017-08-16T19:48:46.744Z,2.60
2017-08-16T19:51:14.717Z,2.63
2017-08-16T19:53:45.621Z,3.07
2017-08-16T19:56:13.677Z,2.00
2017-08-16T19:58:41.487Z,2.50
2017-08-16T20:01:09.928Z,2.70
2017-08-16T20:03:37.762Z,2.30
2017-08-16T20:06:05.648Z,3.00
2017-08-16T20:08:33.504Z,3.00
2017-08-16T20:11:01.288Z,2.73
2017-08-16T20:13:29.776Z,2.23
2017-08-16T20:15:57.575Z,2.40
2017-08-16T20:18:25.395Z,2.70
2017-08-16T20:20:53.243Z,3.13
2017-08-16T21:15:37.001Z,3.03
2017-08-16T21:18:04.772Z,2.77
2017-08-16T21:20:32.583Z,3.40
2017-08-16T21:38:02.507Z,3.10
2017-08-16T21:40:30.350Z,2.87
2017-08-16T21:42:58.052Z,3.70
2017-08-16T21:45:25.741Z,2.50
2017-08-16T21:47:53.549Z,3.00
2017-08-16T21:50:21.297Z,3.07
2017-08-16T21:52:49.098Z,2.40
2017-08-16T21:57:56.570Z,3.80
2017-08-16T22:00:24.275Z,3.27
2017-08-16T22:02:52.067Z,3.40
2017-08-16T22:05:19.845Z,3.57
2017-08-16T22:07:47.615Z,3.13
2017-08-16T22:10:15.361Z,2.63
2017-08-16T22:12:43.216Z,2.40
2017-08-16T22:15:12.204Z,2.73
2017-08-16T22:17:39.915Z,3.27
2017-08-16T22:20:07.789Z,2.80
2017-08-16T22:22:35.495Z,2.57
2017-08-16T22:25:03.286Z,2.53
2017-08-16T22:27:31.116Z,2.60
2017-08-16T22:29:58.837Z,3.47
2017-08-16T22:32:26.558Z,2.77
2017-08-16T22:34:54.408Z,2.83
2017-08-16T22:37:22.158Z,3.60
2017-08-16T22:39:49.902Z,3.00
2017-08-16T22:42:17.703Z,3.07
2017-08-16T22:44:45.499Z,3.23
2017-08-16T22:47:13.202Z,3.87
2017-08-16T22:49:40.967Z,2.43
2017-08-16T22:52:08.685Z,2.60
2017-08-16T22:54:36.395Z,2.70
2017-08-16T22:57:04.271Z,2.80
2017-08-16T22:59:31.988Z,3.40
2017-08-16T23:01:59.745Z,2.90
2017-08-16T23:04:29.267Z,2.73
2017-08-16T23:06:57.012Z,3.97
2017-08-16T23:09:24.798Z,2.70
2017-08-16T23:11:52.522Z,3.37
2017-08-16T23:14:20.234Z,3.20
2017-08-16T23:16:48.009Z,3.10
2017-08-16T23:19:15.723Z,2.73
2017-08-16T23:21:43.425Z,2.77
2017-08-16T23:24:11.239Z,2.80
2017-08-16T23:26:38.974Z,2.77
2017-08-16T23:29:06.780Z,3.00
2017-08-16T23:31:34.518Z,3.23
2017-08-16T23:34:02.252Z,3.27
2017-08-16T23:36:30.022Z,3.00
2017-08-16T23:38:57.851Z,3.30
2017-08-16T23:41:25.559Z,3.20
2017-08-16T23:43:53.287Z,3.30
2017-08-16T23:46:21.034Z,3.13
2017-08-16T23:48:48.759Z,3.40
2017-08-16T23:51:16.466Z,2.73
2017-08-16T23:53:44.232Z,2.50
2017-08-16T23:56:11.957Z,3.00
2017-08-16T23:58:39.736Z,3.77
